Time;durP1;ratioP1;P1;durP2;ratioP2;P2;SDS_P1;SDS_P2;PMS_P1;PMS_P2;Temp;Humidity;BMP_temperature;BMP_pressure;BME280_temperature;BME280_humidity;BME280_pressure;Samples;Min_cycle;Max_cycle;Signal;HPM_P1;HPM_P2
2022/05/22 00:00:16;;;;;;;7.00;2.00;;;;;;;11.39;81.76;101155.11;108653;1271;72247;-85
2022/05/22 00:02:44;;;;;;;9.00;2.40;;;;;;;11.38;81.96;101152.79;108552;1273;73903;-84
2022/05/22 00:05:15;;;;;;;6.30;2.30;;;;;;;11.35;81.95;101148.64;108728;1271;63812;-84
2022/05/22 00:07:41;;;;;;;5.00;1.50;;;;;;;11.34;82.34;101147.78;108627;1274;60915;-85
2022/05/22 00:10:09;;;;;;;4.30;1.40;;;;;;;11.32;82.66;101144.48;108618;1269;73521;-83
2022/05/22 00:12:36;;;;;;;7.80;2.50;;;;;;;11.28;82.69;101142.54;108596;1270;71424;-85
2022/05/22 00:15:05;;;;;;;7.90;2.70;;;;;;;11.24;82.67;101138.69;108598;1272;72862;-86
2022/05/22 00:17:32;;;;;;;7.20;2.20;;;;;;;11.19;82.54;101136.58;107997;1271;62270;-85
2022/05/22 00:20:00;;;;;;;9.90;2.30;;;;;;;11.11;82.61;101135.16;106951;1271;60514;-83
2022/05/22 00:22:53;;;;;;;7.80;2.20;;;;;;;11.07;82.72;101135.14;106822;1269;74821;-84
2022/05/22 00:25:23;;;;;;;5.00;2.30;;;;;;;10.99;83.02;101137.75;106971;1271;71774;-84
2022/05/22 00:27:52;;;;;;;8.20;2.10;;;;;;;10.93;83.20;101140.02;106884;1270;73148;-87
2022/05/22 00:30:19;;;;;;;9.10;2.90;;;;;;;10.86;83.59;101136.66;106900;1271;62569;-85
2022/05/22 00:32:51;;;;;;;6.00;2.30;;;;;;;10.80;84.12;101133.45;106823;1274;60651;-82
2022/05/22 00:35:21;;;;;;;12.50;3.50;;;;;;;10.74;84.12;101131.76;106881;1271;74687;-84
2022/05/22 00:37:51;;;;;;;5.50;2.60;;;;;;;10.68;84.38;101130.66;106917;1271;70586;-84
2022/05/22 00:40:25;;;;;;;10.60;3.00;;;;;;;10.62;84.46;101134.95;106852;1273;74156;-84
2022/05/22 00:43:03;;;;;;;6.70;2.40;;;;;;;10.56;84.97;101133.71;106928;1270;63070;-83
2022/05/22 00:45:30;;;;;;;7.10;2.90;;;;;;;10.49;85.12;101131.80;106913;1271;61134;-83
2022/05/22 00:48:02;;;;;;;6.40;2.30;;;;;;;10.42;85.13;101128.49;106798;1272;74432;-82
2022/05/22 00:50:51;;;;;;;10.30;3.00;;;;;;;10.37;85.87;101130.45;107038;1271;71416;-83
2022/05/22 00:53:42;;;;;;;10.30;4.20;;;;;;;10.30;85.92;101129.56;106859;1271;74351;-84
2022/05/22 00:56:23;;;;;;;5.70;2.30;;;;;;;10.24;86.40;101128.97;106883;1271;63445;-83
2022/05/22 00:59:33;;;;;;;5.80;2.40;;;;;;;10.17;86.67;101129.11;106730;1271;59147;-84
2022/05/22 01:02:07;;;;;;;7.40;3.00;;;;;;;10.09;86.83;101130.67;106883;1271;74681;-84
2022/05/22 01:04:50;;;;;;;;;;;;;;;;;;;;;
2022/05/22 01:07:20;;;;;;;7.60;3.40;;;;;;;9.95;87.38;101126.50;106931;1271;72946;-83
2022/05/22 01:10:06;;;;;;;7.60;2.70;;;;;;;9.90;87.84;101122.83;106645;1273;64525;-83
2022/05/22 01:12:53;;;;;;;10.10;3.50;;;;;;;9.83;88.22;101122.08;106931;1271;60846;-85
2022/05/22 01:15:34;;;;;;;10.30;3.00;;;;;;;9.81;88.88;101121.96;106633;1274;73136;-87
2022/05/22 01:18:06;;;;;;;11.00;3.90;;;;;;;9.78;88.95;101122.71;106563;1273;72763;-83
2022/05/22 01:20:36;;;;;;;8.40;3.80;;;;;;;9.77;89.30;101120.85;106874;1273;74018;-82
2022/05/22 01:23:12;;;;;;;4.90;2.80;;;;;;;9.77;89.65;101119.43;106824;1272;62547;-83
2022/05/22 01:25:44;;;;;;;6.60;2.90;;;;;;;9.78;89.65;101117.26;108581;1273;61837;-83
2022/05/22 01:28:20;;;;;;;8.20;3.30;;;;;;;9.80;89.80;101121.13;108605;1273;73349;-84
2022/05/22 01:30:50;;;;;;;9.80;3.30;;;;;;;9.82;89.84;101121.16;108631;1271;70640;-84
2022/05/22 01:33:25;;;;;;;7.20;3.40;;;;;;;9.84;89.98;101126.78;108603;1273;72903;-85
2022/05/22 01:35:57;;;;;;;6.10;3.80;;;;;;;9.87;90.46;101133.90;107447;1274;61337;-83
2022/05/22 01:38:33;;;;;;;4.20;2.70;;;;;;;9.90;90.76;101136.79;106894;1273;60196;-83
2022/05/22 01:41:23;;;;;;;7.90;2.80;;;;;;;9.93;91.00;101132.91;106870;1272;75503;-82
2022/05/22 01:44:18;;;;;;;9.90;3.30;;;;;;;9.97;91.07;101129.85;106826;1271;71525;-84
2022/05/22 01:46:46;;;;;;;9.70;3.60;;;;;;;9.99;91.43;101131.71;106885;1272;75339;-83
2022/05/22 01:49:26;;;;;;;6.00;2.00;;;;;;;10.01;91.81;101134.54;106787;1273;62337;-82
2022/05/22 01:51:53;;;;;;;8.50;3.10;;;;;;;10.00;91.38;101135.29;106911;1272;60958;-86
2022/05/22 01:54:25;;;;;;;7.20;3.00;;;;;;;10.01;91.36;101134.89;106795;1271;74515;-88
2022/05/22 01:57:05;;;;;;;;;;;;;;;;;;;;;
2022/05/22 01:59:41;;;;;;;11.00;3.60;;;;;;;10.00;91.32;101128.60;106679;1274;72929;-83
2022/05/22 02:02:34;;;;;;;11.30;3.60;;;;;;;9.99;91.49;101125.48;106859;1273;62767;-86
2022/05/22 02:05:25;;;;;;;7.50;3.50;;;;;;;9.94;91.38;101118.35;106899;1271;62473;-84
2022/05/22 02:11:31;;;;;;;;;;;;;;;9.92;91.34;101121.91;106521;1277;72233;-83
2022/05/22 02:14:15;;;;;;;10.90;3.70;;;;;;;9.88;91.43;101123.19;106769;1271;72963;-83
2022/05/22 02:16:42;;;;;;;7.30;3.20;;;;;;;9.84;91.60;101117.80;106922;1271;62176;-84
2022/05/22 02:19:12;;;;;;;10.30;4.00;;;;;;;9.79;91.55;101111.19;106744;1271;60591;-84
2022/05/22 02:21:53;;;;;;;;;;;;;;;;;;;;;
2022/05/22 02:24:25;;;;;;;8.20;3.80;;;;;;;9.69;92.21;101105.89;106873;1271;70990;-84
2022/05/22 02:27:06;;;;;;;8.70;3.10;;;;;;;9.65;91.92;101102.96;106793;1270;73757;-84
2022/05/22 02:29:36;;;;;;;8.50;3.30;;;;;;;9.60;92.15;101106.84;106846;1271;62171;-82
2022/05/22 02:32:03;;;;;;;6.40;3.20;;;;;;;9.55;92.31;101109.10;106931;1271;60504;-84
2022/05/22 02:34:33;;;;;;;5.50;3.20;;;;;;;9.50;92.43;101108.36;106902;1271;75168;-82
2022/05/22 02:37:11;;;;;;;;;;;;;;;;;;;;;
2022/05/22 02:39:41;;;;;;;10.00;3.20;;;;;;;9.43;93.00;101105.39;106919;1271;74420;-83
2022/05/22 02:42:25;;;;;;;;;;;;;;;;;;;;;
2022/05/22 02:45:18;;;;;;;7.30;3.60;;;;;;;9.38;93.34;101096.13;106863;1271;60880;-83
2022/05/22 02:47:56;;;;;;;10.00;3.80;;;;;;;9.38;93.51;101095.30;106908;1271;72535;-84
2022/05/22 02:50:26;;;;;;;7.30;3.40;;;;;;;9.37;93.91;101097.49;106807;1272;70795;-83
2022/05/22 02:52:59;;;;;;;8.40;3.20;;;;;;;9.39;93.98;101093.92;106931;1271;73352;-84
2022/05/22 02:55:29;;;;;;;9.60;4.50;;;;;;;9.41;93.92;101096.77;107928;1271;62469;-84
2022/05/22 02:58:09;;;;;;;;;;;;;;;;;;;;;
2022/05/22 03:00:53;;;;;;;7.20;3.30;;;;;;;9.47;94.28;101098.83;108099;1271;74093;-84
2022/05/22 03:03:30;;;;;;;7.90;2.70;;;;;;;9.51;94.53;101101.36;107623;1271;71542;-83
2022/05/22 03:11:57;;;;;;;7.20;3.10;;;;;;;9.59;95.10;101105.29;107488;1271;62488;-84
2022/05/22 03:14:52;;;;;;;10.10;4.70;;;;;;;9.62;94.86;101113.61;107566;1271;75388;-84
2022/05/22 03:17:34;;;;;;;7.30;3.50;;;;;;;9.65;95.03;101117.80;107607;1271;71287;-84
2022/05/22 03:20:14;;;;;;;;;;;;;;;;;;;;;
2022/05/22 03:23:13;;;;;;;;;;;;;;;;;;;;;
2022/05/22 03:25:59;;;;;;;;;;;;;;;;;;;;;
2022/05/22 03:28:55;;;;;;;7.60;3.60;;;;;;;9.72;94.81;101116.11;107083;1272;75028;-82
2022/05/22 03:31:31;;;;;;;8.50;3.50;;;;;;;9.74;94.57;101120.05;107270;1271;72445;-85
2022/05/22 03:34:00;;;;;;;7.20;4.10;;;;;;;9.74;94.69;101123.53;107402;1270;73984;-84
2022/05/22 03:36:38;;;;;;;11.40;3.50;;;;;;;9.73;94.46;101118.86;107459;1271;59608;-84
2022/05/22 03:39:09;;;;;;;8.90;4.20;;;;;;;9.71;94.70;101115.14;107429;1273;60814;-88
2022/05/22 03:42:18;;;;;;;;;;;;;;;;;;;;;
2022/05/22 03:44:48;;;;;;;6.70;3.80;;;;;;;9.72;94.94;101109.24;107527;1270;71279;-85
2022/05/22 03:47:27;;;;;;;;;;;;;;;;;;;;;
2022/05/22 03:50:09;;;;;;;9.70;3.60;;;;;;;9.73;95.49;101102.42;107133;1271;63322;-85
2022/05/22 03:52:46;;;;;;;7.90;4.00;;;;;;;9.74;95.24;101108.00;107304;1271;61312;-84
2022/05/22 03:55:16;;;;;;;6.60;3.60;;;;;;;9.75;95.21;101103.14;107377;1271;74775;-84
2022/05/22 03:58:19;;;;;;;;;;;;;;;;;;;;;
2022/05/22 04:00:49;;;;;;;9.10;4.00;;;;;;;9.79;95.34;101107.45;107005;1271;75159;-84
2022/05/22 04:03:38;;;;;;;10.40;4.20;;;;;;;9.83;95.52;101107.60;106780;1271;60355;-83
2022/05/22 04:06:34;;;;;;;8.00;4.30;;;;;;;9.87;95.76;101105.40;106668;1271;60596;-86
2022/05/22 04:09:01;;;;;;;;;;;;;;;9.94;95.63;101096.41;107001;1271;74373;-86
2022/05/22 04:11:31;;;;;;;9.70;4.50;;;;;;;10.01;95.37;101094.41;108628;1271;71293;-86
2022/05/22 04:13:58;;;;;;;8.60;4.10;;;;;;;10.08;95.34;101096.85;108608;1269;73139;-86
2022/05/22 04:16:34;;;;;;;9.20;4.20;;;;;;;10.19;95.39;101095.75;108630;1271;62456;-83
2022/05/22 04:19:02;;;;;;;10.80;4.30;;;;;;;10.30;94.99;101090.98;108657;1271;60534;-83
2022/05/22 04:21:45;;;;;;;7.80;3.70;;;;;;;10.40;94.56;101087.13;108091;1271;74101;-83
2022/05/22 04:27:03;;;;;;;11.10;4.50;;;;;;;10.58;93.36;101094.17;106885;1271;73347;-89
2022/05/22 04:30:27;;;;;;;10.60;4.40;;;;;;;10.66;93.10;101090.79;106739;1271;63689;-86
2022/05/22 04:33:11;;;;;;;8.10;2.70;;;;;;;10.77;93.13;101098.05;106955;1271;62478;-86
2022/05/22 04:35:44;;;;;;;8.10;2.90;;;;;;;10.85;92.42;101104.27;106993;1271;72848;-85
2022/05/22 04:38:19;;;;;;;6.50;4.10;;;;;;;10.92;92.32;101105.58;107038;1271;71367;-85
2022/05/22 04:41:01;;;;;;;7.30;3.20;;;;;;;11.00;92.02;101105.78;108214;1271;72914;-86
2022/05/22 04:43:30;;;;;;;6.60;3.20;;;;;;;11.05;91.33;101106.33;107530;1271;62802;-83
2022/05/22 04:46:36;;;;;;;7.70;4.40;;;;;;;11.11;91.09;101107.27;106857;1271;61611;-85
2022/05/22 04:49:37;;;;;;;4.60;2.60;;;;;;;11.16;90.63;101111.48;106837;1271;73842;-84
2022/05/22 04:52:16;;;;;;;8.00;3.70;;;;;;;11.19;90.50;101110.67;107006;1271;71141;-84
2022/05/22 04:55:15;;;;;;;9.30;3.80;;;;;;;11.22;90.41;101106.24;106850;1271;73240;-83
2022/05/22 04:58:25;;;;;;;;;;;;;;;;;;;;;
2022/05/22 05:00:57;;;;;;;8.90;3.90;;;;;;;11.18;90.40;101097.59;106850;1272;61997;-85
2022/05/22 05:04:19;;;;;;;7.50;4.10;;;;;;;11.20;90.46;101100.70;106760;1271;74156;-85
2022/05/22 05:06:56;;;;;;;12.30;3.90;;;;;;;11.25;90.42;101107.83;106844;1271;71172;-84
2022/05/22 05:09:26;;;;;;;6.60;3.60;;;;;;;11.29;89.97;101106.90;106749;1271;72774;-84
2022/05/22 05:11:55;;;;;;;10.30;3.30;;;;;;;11.31;89.82;101112.59;106885;1271;61627;-84
2022/05/22 05:14:26;;;;;;;6.80;3.60;;;;;;;11.37;89.63;101111.75;106963;1271;61622;-84
2022/05/22 05:16:53;;;;;;;7.40;3.40;;;;;;;11.44;89.46;101108.71;106856;1271;77397;-84
2022/05/22 05:19:20;;;;;;;10.30;4.90;;;;;;;11.57;89.25;101114.02;106880;1273;71318;-89
2022/05/22 05:21:50;;;;;;;8.80;3.70;;;;;;;11.64;88.64;101107.95;106745;1271;72924;-84
2022/05/22 05:24:16;;;;;;;8.60;3.50;;;;;;;11.77;88.64;101109.78;106805;1274;64797;-84
2022/05/22 05:26:48;;;;;;;8.70;4.40;;;;;;;11.90;88.17;101109.68;106894;1271;61831;-84
2022/05/22 05:29:18;;;;;;;7.50;3.60;;;;;;;11.98;87.40;101109.96;106822;1271;75644;-84
2022/05/22 05:31:54;;;;;;;9.50;3.40;;;;;;;12.07;86.93;101110.18;107019;1271;71319;-82
2022/05/22 05:34:27;;;;;;;4.50;2.40;;;;;;;12.11;85.88;101111.59;106726;1271;72660;-86
2022/05/22 05:37:03;;;;;;;11.30;3.80;;;;;;;12.15;86.13;101111.59;106766;1271;62386;-83
2022/05/22 05:39:30;;;;;;;9.30;3.80;;;;;;;12.23;86.04;101109.95;106954;1271;60464;-88
2022/05/22 05:42:00;;;;;;;8.20;3.50;;;;;;;12.29;85.17;101115.34;106818;1273;74485;-87
2022/05/22 05:44:27;;;;;;;7.30;3.40;;;;;;;12.32;84.67;101116.91;106739;1271;72169;-87
2022/05/22 05:46:59;;;;;;;8.00;4.10;;;;;;;12.37;84.63;101117.66;107236;1271;74770;-85
2022/05/22 05:49:26;;;;;;;9.00;3.80;;;;;;;12.45;84.02;101121.48;107705;1271;62286;-84
2022/05/22 05:51:52;;;;;;;7.30;3.60;;;;;;;12.51;83.76;101121.05;107554;1271;60431;-85
2022/05/22 05:54:34;;;;;;;7.80;3.10;;;;;;;12.55;83.18;101112.57;107873;1271;74831;-85
2022/05/22 05:57:01;;;;;;;10.80;3.60;;;;;;;12.63;82.73;101117.98;107660;1271;70077;-85
2022/05/22 05:59:28;;;;;;;10.50;4.00;;;;;;;12.72;82.71;101109.56;107963;1271;73040;-88
2022/05/22 06:01:55;;;;;;;7.40;3.40;;;;;;;12.82;82.48;101102.88;107503;1271;63781;-86
2022/05/22 06:04:28;;;;;;;12.90;4.10;;;;;;;12.93;82.40;101100.61;107089;1271;61785;-86
2022/05/22 06:06:55;;;;;;;9.40;3.20;;;;;;;13.08;81.33;101101.70;107135;1271;74908;-88
2022/05/22 06:09:25;;;;;;;8.90;3.60;;;;;;;13.14;80.41;101106.04;107043;1271;70918;-86
2022/05/22 06:11:57;;;;;;;14.90;5.60;;;;;;;13.20;80.00;101101.36;107078;1271;71202;-92
2022/05/22 06:14:25;;;;;;;9.60;4.50;;;;;;;13.21;79.18;101105.15;107106;1271;62261;-84
2022/05/22 06:16:52;;;;;;;11.30;5.00;;;;;;;13.10;78.64;101102.88;107224;1271;60400;-86
2022/05/22 06:19:53;;;;;;;12.40;4.90;;;;;;;13.04;78.98;101104.34;106906;1271;74885;-83
2022/05/22 06:22:11;;;;;;;8.30;4.30;;;;;;;12.98;79.45;101096.67;106951;1271;74460;-86
2022/05/22 06:24:37;;;;;;;9.90;3.50;;;;;;;12.97;79.62;101093.02;107066;1271;73029;-85
2022/05/22 06:27:07;;;;;;;10.90;4.60;;;;;;;13.07;79.83;101091.41;106950;1271;62737;-84
2022/05/22 06:29:34;;;;;;;10.40;4.70;;;;;;;13.20;79.82;101090.93;106627;1271;60674;-83
2022/05/22 06:32:38;;;;;;;10.30;5.30;;;;;;;13.31;79.33;101083.98;106727;1271;74111;-82
2022/05/22 06:35:11;;;;;;;12.10;5.70;;;;;;;13.50;77.88;101091.10;106937;1271;71411;-85
2022/05/22 06:37:37;;;;;;;12.50;5.80;;;;;;;13.61;77.27;101087.31;106969;1271;73184;-84
2022/05/22 06:40:07;;;;;;;13.40;7.00;;;;;;;13.73;77.17;101081.80;106996;1271;63510;-90
2022/05/22 06:42:42;;;;;;;10.20;6.50;;;;;;;13.91;76.85;101079.92;106925;1271;61032;-85
2022/05/22 06:45:22;;;;;;;13.20;6.10;;;;;;;14.08;75.69;101084.02;106773;1272;75799;-84
2022/05/22 06:47:49;;;;;;;9.80;4.30;;;;;;;14.24;75.05;101083.13;107358;1271;71350;-85
2022/05/22 06:50:19;;;;;;;9.40;4.50;;;;;;;14.36;73.40;101086.04;108076;1271;72958;-84
2022/05/22 06:52:45;;;;;;;11.10;3.70;;;;;;;14.41;72.36;101083.77;107986;1271;64109;-86
2022/05/22 06:55:15;;;;;;;9.60;4.30;;;;;;;14.46;72.05;101081.04;107754;1271;60532;-84
2022/05/22 06:57:43;;;;;;;14.80;4.80;;;;;;;14.58;71.45;101077.40;107100;1271;74435;-84
2022/05/22 07:00:15;;;;;;;9.60;4.60;;;;;;;14.71;71.21;101073.48;107068;1272;71453;-84
2022/05/22 07:02:42;;;;;;;12.40;3.70;;;;;;;14.89;71.34;101068.29;107053;1274;74184;-88
2022/05/22 07:05:14;;;;;;;6.90;3.00;;;;;;;14.98;70.41;101067.17;107241;1271;62195;-85
2022/05/22 07:07:41;;;;;;;7.90;2.40;;;;;;;15.00;69.51;101072.10;107668;1271;60353;-84
2022/05/22 07:10:08;;;;;;;4.90;2.20;;;;;;;15.01;69.84;101073.89;108057;1273;74953;-85
2022/05/22 07:12:34;;;;;;;7.40;3.70;;;;;;;14.92;69.93;101071.39;107986;1271;71214;-84
2022/05/22 07:15:03;;;;;;;6.30;2.20;;;;;;;14.90;70.01;101079.27;108067;1271;72900;-84
2022/05/22 07:17:30;;;;;;;6.50;2.70;;;;;;;14.85;69.39;101078.12;108168;1271;62599;-84
2022/05/22 07:19:57;;;;;;;7.00;3.30;;;;;;;14.88;69.45;101075.30;107960;1271;60769;-85
2022/05/22 07:22:24;;;;;;;6.00;2.80;;;;;;;14.89;67.20;101071.36;107559;1271;74242;-82
2022/05/22 07:24:52;;;;;;;7.50;4.30;;;;;;;14.88;66.17;101068.73;108357;1271;71297;-84
2022/05/22 07:27:19;;;;;;;4.80;3.10;;;;;;;14.95;66.53;101069.39;107486;1271;74545;-86
2022/05/22 07:29:49;;;;;;;5.20;2.30;;;;;;;15.02;67.36;101071.63;107193;1271;63517;-88
2022/05/22 07:32:16;;;;;;;7.80;2.10;;;;;;;15.15;67.80;101068.55;107277;1271;60639;-84
2022/05/22 07:34:43;;;;;;;7.40;2.50;;;;;;;15.32;66.84;101063.18;107243;1271;73979;-84
2022/05/22 07:37:11;;;;;;;6.20;2.80;;;;;;;15.56;66.83;101060.42;107179;1271;72423;-87
2022/05/22 07:39:38;;;;;;;7.60;2.50;;;;;;;15.75;64.45;101062.55;107226;1272;74369;-84
2022/05/22 07:42:05;;;;;;;5.10;1.60;;;;;;;15.91;63.49;101060.09;107066;1273;63065;-86
2022/05/22 07:44:32;;;;;;;7.50;2.80;;;;;;;15.92;62.26;101058.65;107383;1271;60461;-84
2022/05/22 07:46:59;;;;;;;9.90;3.60;;;;;;;15.81;62.37;101057.99;107307;1271;75180;-85
2022/05/22 07:50:16;;;;;;;7.40;3.10;;;;;;;15.59;62.16;101058.99;107147;1272;71793;-84
2022/05/22 07:52:18;;;;;;;10.30;3.20;;;;;;;15.38;63.11;101061.16;106907;1271;74487;-84
2022/05/22 07:54:48;;;;;;;7.90;3.20;;;;;;;15.25;63.63;101057.67;106971;1271;62180;-85
2022/05/22 07:57:15;;;;;;;6.60;3.30;;;;;;;15.36;63.47;101052.97;107093;1271;61309;-83
2022/05/22 08:00:01;;;;;;;6.90;3.40;;;;;;;15.54;63.90;101053.09;106945;1273;74083;-86
2022/05/22 08:02:28;;;;;;;5.90;2.80;;;;;;;15.70;63.07;101046.35;107025;1271;71753;-82
2022/05/22 08:04:57;;;;;;;7.00;1.80;;;;;;;15.81;58.85;101054.62;107066;1271;74477;-83
2022/05/22 08:07:23;;;;;;;3.60;1.70;;;;;;;15.76;58.95;101057.08;106951;1271;62496;-83
2022/05/22 08:09:51;;;;;;;8.00;2.20;;;;;;;15.77;59.38;101058.19;106857;1272;61933;-83
2022/05/22 08:12:21;;;;;;;4.00;1.70;;;;;;;15.78;59.03;101060.45;107113;1272;74539;-83
2022/05/22 08:14:51;;;;;;;5.60;2.90;;;;;;;15.78;59.61;101063.34;106893;1271;72330;-84
2022/05/22 08:17:21;;;;;;;5.90;2.00;;;;;;;15.95;59.65;101064.04;107103;1271;72953;-82
2022/05/22 08:19:52;;;;;;;7.10;1.80;;;;;;;16.07;59.52;101066.34;106758;1271;60920;-85
2022/05/22 08:22:19;;;;;;;6.70;1.80;;;;;;;15.86;58.22;101074.11;106770;1271;61261;-86
2022/05/22 08:24:46;;;;;;;4.50;2.20;;;;;;;15.60;59.03;101073.20;106787;1271;73461;-82
2022/05/22 08:27:20;;;;;;;6.80;2.80;;;;;;;15.44;60.31;101072.94;106826;1271;71721;-84
2022/05/22 08:29:49;;;;;;;5.70;1.90;;;;;;;15.54;61.17;101067.49;106740;1271;73285;-82
2022/05/22 08:32:22;;;;;;;7.30;2.10;;;;;;;15.78;60.53;101057.66;106723;1271;61971;-84
2022/05/22 08:34:55;;;;;;;4.40;1.60;;;;;;;16.06;59.58;101055.80;106803;1271;60513;-82
2022/05/22 08:37:23;;;;;;;6.40;1.10;;;;;;;16.37;57.67;101062.17;106709;1271;75153;-86
2022/05/22 08:39:49;;;;;;;4.60;1.20;;;;;;;16.51;53.10;101062.02;106483;1271;71384;-84
2022/05/22 08:42:20;;;;;;;4.20;0.90;;;;;;;16.52;52.95;101059.84;106467;1271;73089;-84
2022/05/22 08:44:51;;;;;;;6.00;1.50;;;;;;;16.56;54.59;101056.88;106631;1271;60455;-85
2022/05/22 08:47:25;;;;;;;3.60;1.20;;;;;;;16.60;54.76;101059.17;106586;1271;61058;-84
2022/05/22 08:50:01;;;;;;;3.30;0.70;;;;;;;16.49;51.76;101061.52;106731;1271;75228;-86
2022/05/22 08:52:52;;;;;;;6.40;1.00;;;;;;;16.43;52.24;101064.61;106753;1271;71577;-86
2022/05/22 09:01:18;;;;;;;3.00;0.70;;;;;;;16.75;51.56;101052.30;106588;1271;60974;-83
2022/05/22 09:04:04;;;;;;;2.10;0.80;;;;;;;16.70;51.88;101050.48;106508;1271;75368;-85
2022/05/22 09:06:39;;;;;;;3.30;0.60;;;;;;;16.40;51.93;101052.70;106541;1272;71332;-83
2022/05/22 09:09:06;;;;;;;2.90;1.00;;;;;;;16.32;52.37;101046.88;106475;1271;72981;-84
2022/05/22 09:12:00;;;;;;;5.50;1.10;;;;;;;16.44;52.21;101040.89;106594;1271;61955;-85
2022/05/22 09:14:41;;;;;;;6.50;1.00;;;;;;;16.64;52.98;101043.93;106425;1271;61711;-86
2022/05/22 09:17:24;;;;;;;3.40;0.80;;;;;;;16.85;51.59;101040.23;106404;1271;75497;-84
2022/05/22 09:20:21;;;;;;;3.40;0.90;;;;;;;17.07;50.16;101035.66;106627;1271;71498;-84
2022/05/22 09:23:16;;;;;;;5.20;0.80;;;;;;;17.19;49.05;101028.02;106486;1271;73079;-84
2022/05/22 09:25:58;;;;;;;;;;;;;;;17.41;50.01;101028.52;106619;1273;60571;-86
2022/05/22 09:28:31;;;;;;;2.00;0.50;;;;;;;17.59;49.42;101025.93;106589;1271;60326;-84
2022/05/22 09:31:38;;;;;;;2.90;0.80;;;;;;;17.35;49.01;101027.13;106212;1271;427476;-85
2022/05/22 09:34:24;;;;;;;4.90;0.80;;;;;;;17.31;49.23;101025.29;106524;1271;72238;-88
2022/05/22 09:36:51;;;;;;;2.80;0.80;;;;;;;17.08;48.18;101025.06;106403;1271;72361;-84
2022/05/22 09:39:45;;;;;;;2.30;0.90;;;;;;;16.95;48.83;101021.79;106529;1271;60466;-83
2022/05/22 09:42:27;;;;;;;4.90;1.30;;;;;;;17.05;49.71;101016.25;106480;1271;61946;-84
2022/05/22 09:45:19;;;;;;;5.30;1.10;;;;;;;17.23;49.96;101009.35;106488;1271;75255;-84
2022/05/22 09:48:08;;;;;;;3.70;0.90;;;;;;;17.38;49.65;101006.86;106512;1271;71714;-83
2022/05/22 09:51:01;;;;;;;3.80;1.10;;;;;;;17.62;50.60;101006.80;106450;1271;72921;-83
2022/05/22 09:53:56;;;;;;;1.70;0.70;;;;;;;17.71;46.19;101007.86;106674;1271;61875;-83
2022/05/22 09:56:58;;;;;;;3.20;1.10;;;;;;;17.81;46.88;101001.55;106662;1271;62961;-85
2022/05/22 09:59:46;;;;;;;3.40;1.00;;;;;;;17.91;47.87;101007.63;106561;1271;75403;-83
2022/05/22 10:02:38;;;;;;;5.90;1.20;;;;;;;18.05;47.15;101010.92;106623;1271;72595;-83
2022/05/22 10:05:19;;;;;;;5.00;1.00;;;;;;;18.01;46.14;101014.30;106450;1273;74824;-83
2022/05/22 10:08:24;;;;;;;4.50;1.70;;;;;;;18.13;44.86;101014.22;106530;1271;60470;-83
2022/05/22 10:11:33;;;;;;;2.90;0.80;;;;;;;18.26;44.75;101013.64;106624;1271;62035;-83
2022/05/22 10:14:18;;;;;;;3.50;1.00;;;;;;;18.21;45.62;101014.58;106577;1271;75484;-84
2022/05/22 10:16:59;;;;;;;;;;;;;;;18.18;46.54;101015.71;106591;1274;71501;-84
2022/05/22 10:19:32;;;;;;;3.30;1.10;;;;;;;18.23;47.00;101013.81;106502;1271;72247;-83
2022/05/22 10:22:37;;;;;;;5.40;1.40;;;;;;;18.36;46.50;101014.98;106560;1271;61003;-83
2022/05/22 10:25:31;;;;;;;2.30;0.90;;;;;;;18.43;44.98;101004.44;106556;1269;60708;-82
2022/05/22 10:28:21;;;;;;;3.80;1.00;;;;;;;18.64;44.99;101002.61;106517;1272;74610;-81
2022/05/22 10:30:59;;;;;;;3.00;1.10;;;;;;;18.69;44.70;100998.13;106698;1271;71548;-81
2022/05/22 10:33:35;;;;;;;3.30;1.20;;;;;;;18.75;45.35;100998.77;107906;1271;73285;-83
2022/05/22 10:36:07;;;;;;;1.80;0.80;;;;;;;18.85;45.74;100993.35;107669;1271;62487;-83
2022/05/22 10:38:44;;;;;;;4.00;1.20;;;;;;;18.99;45.84;100993.41;106715;1271;61769;-84
2022/05/22 10:44:13;;;;;;;4.50;1.20;;;;;;;19.05;44.77;100988.29;106598;1271;71792;-83
2022/05/22 10:46:52;;;;;;;2.60;1.00;;;;;;;18.90;44.31;100991.48;106410;1271;73007;-84
2022/05/22 10:49:23;;;;;;;4.60;1.10;;;;;;;18.92;44.72;100983.34;106314;1274;60780;-84
2022/05/22 10:52:02;;;;;;;4.10;1.20;;;;;;;19.07;44.37;100978.55;106607;1271;62808;-84
2022/05/22 10:54:33;;;;;;;2.70;0.70;;;;;;;19.33;42.87;100981.44;106352;1271;75341;-84
2022/05/22 10:57:12;;;;;;;4.30;0.80;;;;;;;19.52;42.64;100976.59;106466;1271;70506;-83
2022/05/22 10:59:39;;;;;;;2.70;0.70;;;;;;;19.70;41.65;100973.64;106469;1271;72990;-83
2022/05/22 11:02:28;;;;;;;3.50;0.90;;;;;;;19.73;40.74;100976.85;106930;1271;61641;-84
2022/05/22 11:04:57;;;;;;;2.20;0.70;;;;;;;19.52;40.71;100974.98;106541;1271;63204;-85
2022/05/22 11:07:49;;;;;;;3.20;0.70;;;;;;;19.41;41.87;100974.04;106616;1271;74072;-85
2022/05/22 11:10:20;;;;;;;1.80;0.60;;;;;;;19.29;42.43;100968.67;106562;1271;71117;-85
2022/05/22 11:13:01;;;;;;;2.30;0.60;;;;;;;19.31;41.08;100966.48;106847;1272;73275;-83
2022/05/22 11:15:32;;;;;;;3.20;0.80;;;;;;;19.47;40.80;100966.66;106665;1271;61882;-84
2022/05/22 11:18:07;;;;;;;3.60;0.90;;;;;;;19.65;41.08;100963.06;106576;1271;63545;-85
2022/05/22 11:20:38;;;;;;;3.60;1.00;;;;;;;19.80;40.72;100963.31;106520;1271;73934;-84
2022/05/22 11:23:08;;;;;;;3.80;1.10;;;;;;;19.84;40.28;100958.45;106767;1271;72578;-83
2022/05/22 11:25:44;;;;;;;2.40;1.30;;;;;;;19.85;40.01;100956.81;106586;1271;75251;-84
2022/05/22 11:28:36;;;;;;;3.50;1.10;;;;;;;19.92;39.86;100949.85;106529;1271;61964;-84
2022/05/22 11:31:06;;;;;;;1.80;0.60;;;;;;;20.13;39.73;100943.83;106559;1271;60642;-83
2022/05/22 11:34:07;;;;;;;2.40;1.00;;;;;;;20.39;39.78;100941.95;106474;1271;75220;-83
2022/05/22 11:37:02;;;;;;;4.10;0.90;;;;;;;20.65;38.15;100939.94;106587;1271;72003;-84
2022/05/22 11:40:01;;;;;;;1.00;0.50;;;;;;;20.72;38.13;100929.36;106769;1271;73113;-84
2022/05/22 11:42:33;;;;;;;4.10;0.70;;;;;;;20.68;38.15;100931.77;106718;1271;59303;-85
2022/05/22 11:45:14;;;;;;;2.70;0.70;;;;;;;20.73;38.01;100930.52;106681;1271;60358;-84
2022/05/22 11:48:03;;;;;;;2.80;0.80;;;;;;;20.86;37.95;100921.84;106791;1271;74700;-83
2022/05/22 11:50:52;;;;;;;3.30;0.60;;;;;;;21.04;37.71;100917.30;106846;1271;71690;-83
2022/05/22 11:53:45;;;;;;;2.90;0.80;;;;;;;21.23;37.14;100916.87;106585;1274;72944;-85
2022/05/22 11:56:41;;;;;;;3.00;0.80;;;;;;;21.51;36.85;100916.86;106609;1271;61610;-83
2022/05/22 11:59:18;;;;;;;2.20;0.50;;;;;;;21.86;36.39;100917.43;106613;1271;60925;-84
2022/05/22 12:02:10;;;;;;;4.40;1.10;;;;;;;22.16;35.71;100915.91;106579;1271;74020;-83
2022/05/22 12:04:52;;;;;;;3.60;1.00;;;;;;;22.59;35.27;100912.92;106626;1271;73268;-83
2022/05/22 12:07:38;;;;;;;2.50;0.80;;;;;;;23.09;34.56;100906.48;106604;1273;74307;-84
2022/05/22 12:10:26;;;;;;;3.70;0.80;;;;;;;23.36;32.68;100915.79;106545;1273;62172;-83
2022/05/22 12:13:13;;;;;;;3.60;0.60;;;;;;;23.65;32.84;100908.80;106466;1269;61788;-81
2022/05/22 12:15:49;;;;;;;2.10;0.80;;;;;;;24.08;31.80;100908.09;106476;1271;75231;-83
2022/05/22 12:18:42;;;;;;;2.50;0.90;;;;;;;24.34;31.99;100905.95;106759;1269;73518;-84
2022/05/22 12:21:35;;;;;;;2.80;0.90;;;;;;;24.72;31.15;100904.98;106528;1271;73378;-83
2022/05/22 12:24:42;;;;;;;3.20;1.00;;;;;;;24.61;31.79;100898.16;106669;1271;61353;-85
2022/05/22 12:27:25;;;;;;;3.00;0.60;;;;;;;24.63;32.54;100890.40;106596;1271;61865;-85
2022/05/22 12:30:08;;;;;;;2.70;0.70;;;;;;;24.96;33.28;100882.55;106401;1271;75384;-84
2022/05/22 12:32:49;;;;;;;3.00;0.60;;;;;;;25.21;32.27;100882.21;106449;1272;71419;-85
2022/05/22 12:35:16;;;;;;;4.60;0.90;;;;;;;25.49;31.55;100884.06;106252;1273;73294;-84
2022/05/22 12:37:51;;;;;;;3.10;0.60;;;;;;;25.92;30.97;100882.48;106390;1271;61750;-84
2022/05/22 12:40:30;;;;;;;1.90;0.50;;;;;;;26.44;30.61;100878.40;106362;1274;60880;-84
2022/05/22 12:43:01;;;;;;;2.50;0.90;;;;;;;27.13;30.80;100878.94;106354;1271;74205;-85